Time;durP1;ratioP1;P1;durP2;ratioP2;P2;SDS_P1;SDS_P2;PMS_P1;PMS_P2;Temp;Humidity;BMP_temperature;BMP_pressure;BME280_temperature;BME280_humidity;BME280_pressure;Samples;Min_cycle;Max_cycle;Signal;HPM_P1;HPM_P2
2021/07/29 00:00:20;;;;;;;6.13;5.00;;;;;;;19.33;85.12;100293.72;3573632;40;20176;-43
2021/07/29 00:02:47;;;;;;;7.05;5.90;;;;;;;19.34;84.92;100291.97;3574376;40;20100;-42
2021/07/29 00:05:15;;;;;;;8.52;5.65;;;;;;;19.45;84.87;100290.03;3573417;40;20044;-42
2021/07/29 00:07:41;;;;;;;5.68;5.18;;;;;;;19.14;86.39;100284.53;3573623;40;20334;-43
2021/07/29 00:10:09;;;;;;;6.40;5.43;;;;;;;19.32;85.79;100276.44;3570253;40;20048;-42
2021/07/29 00:12:36;;;;;;;8.05;5.53;;;;;;;19.07;86.69;100288.94;3566211;40;20053;-42
2021/07/29 00:15:05;;;;;;;6.03;4.90;;;;;;;19.15;87.22;100282.78;3570495;40;20086;-42
2021/07/29 00:20:25;;;;;;;7.28;6.07;;;;;;;19.06;87.56;100273.41;3573496;40;20407;-42
2021/07/29 00:22:56;;;;;;;6.90;5.30;;;;;;;19.02;88.14;100271.75;3573894;40;20085;-42
2021/07/29 00:25:24;;;;;;;6.47;5.70;;;;;;;19.02;88.41;100270.00;3572498;40;20088;-42
2021/07/29 00:27:53;;;;;;;5.80;5.28;;;;;;;19.06;88.44;100265.63;3571004;40;20109;-42
2021/07/29 00:30:22;;;;;;;8.77;5.50;;;;;;;19.12;88.12;100275.03;3573445;40;20053;-42
2021/07/29 00:32:54;;;;;;;6.32;5.20;;;;;;;19.12;88.10;100265.50;3573685;40;20056;-42
2021/07/29 00:35:21;;;;;;;6.95;5.72;;;;;;;19.15;88.06;100272.41;3573370;40;20097;-42
2021/07/29 00:37:51;;;;;;;7.45;5.22;;;;;;;19.11;88.24;100265.56;3573506;40;20085;-42
2021/07/29 00:40:22;;;;;;;7.47;5.32;;;;;;;19.09;88.42;100270.78;3573104;40;20084;-42
2021/07/29 00:42:49;;;;;;;6.55;5.68;;;;;;;19.16;88.16;100268.91;3571479;40;20065;-43
2021/07/29 00:45:16;;;;;;;7.68;5.55;;;;;;;19.17;88.42;100266.28;3572789;40;20053;-43
2021/07/29 00:47:46;;;;;;;6.63;5.75;;;;;;;18.95;89.37;100264.91;3573771;40;20755;-42
2021/07/29 00:50:33;;;;;;;7.80;5.70;;;;;;;19.07;89.04;100272.53;3573126;40;20057;-43
2021/07/29 00:53:00;;;;;;;7.65;5.45;;;;;;;18.92;89.83;100270.16;3573505;40;20045;-42
2021/07/29 00:55:27;;;;;;;6.43;5.32;;;;;;;19.05;89.41;100271.69;3573393;40;20044;-42
2021/07/29 00:57:54;;;;;;;6.88;5.80;;;;;;;18.94;89.48;100274.44;3573629;40;20115;-42
2021/07/29 01:00:21;;;;;;;6.35;5.75;;;;;;;18.96;89.79;100271.84;3573202;40;20101;-43
2021/07/29 01:02:49;;;;;;;8.50;6.03;;;;;;;18.79;90.48;100274.69;3573714;40;20074;-43
2021/07/29 01:05:16;;;;;;;6.28;5.30;;;;;;;18.80;90.89;100266.00;3573586;40;20105;-42
2021/07/29 01:07:43;;;;;;;6.97;5.68;;;;;;;18.83;90.56;100272.00;3573552;40;20588;-42
2021/07/29 01:10:10;;;;;;;5.45;4.95;;;;;;;18.72;91.25;100268.75;3570033;40;20053;-42
2021/07/29 01:12:38;;;;;;;6.25;5.60;;;;;;;18.63;92.14;100261.06;3569989;40;20440;-42
2021/07/29 01:15:05;;;;;;;6.38;5.68;;;;;;;18.70;91.81;100265.28;3573512;40;20048;-42
2021/07/29 01:17:33;;;;;;;6.25;5.65;;;;;;;18.57;92.53;100263.72;3572803;40;20045;-42
2021/07/29 01:20:01;;;;;;;6.00;5.40;;;;;;;18.53;92.81;100259.44;3573462;40;20436;-44
2021/07/29 01:22:36;;;;;;;5.80;5.30;;;;;;;18.53;93.12;100256.84;3573272;40;20050;-42
2021/07/29 01:25:04;;;;;;;7.18;5.07;;;;;;;18.45;93.78;100258.72;3573533;40;20466;-42
2021/07/29 01:27:32;;;;;;;7.50;5.72;;;;;;;18.38;93.81;100249.28;3572619;40;20443;-42
2021/07/29 01:30:01;;;;;;;8.77;5.10;;;;;;;18.32;94.15;100250.25;3573086;40;20049;-42
2021/07/29 01:32:29;;;;;;;5.22;4.72;;;;;;;18.20;95.43;100251.25;3572929;40;20053;-45
2021/07/29 01:34:57;;;;;;;5.80;5.28;;;;;;;18.27;95.16;100252.88;3569406;40;20092;-43
2021/07/29 01:37:26;;;;;;;6.43;5.13;;;;;;;18.22;95.29;100248.66;3573052;40;20407;-42
2021/07/29 01:39:54;;;;;;;5.90;5.20;;;;;;;18.12;95.96;100253.09;3573632;40;20061;-42
2021/07/29 01:42:21;;;;;;;5.97;5.35;;;;;;;18.22;95.73;100254.69;3576386;40;20085;-44
2021/07/29 01:44:48;;;;;;;6.53;5.68;;;;;;;18.18;95.80;100244.38;3579956;40;20060;-44
2021/07/29 01:47:15;;;;;;;5.85;5.30;;;;;;;17.94;97.20;100242.94;3571537;40;20146;-42
2021/07/29 01:49:42;;;;;;;7.28;5.45;;;;;;;18.12;96.56;100245.31;3573133;40;20053;-44
2021/07/29 01:52:10;;;;;;;5.15;4.72;;;;;;;18.17;96.46;100237.47;3572897;40;20053;-42
2021/07/29 01:54:37;;;;;;;5.22;4.72;;;;;;;18.08;96.64;100242.78;3569784;40;20403;-42
2021/07/29 01:57:07;;;;;;;6.65;5.72;;;;;;;18.02;97.26;100236.78;3573168;40;20057;-43
2021/07/29 01:59:36;;;;;;;5.97;5.00;;;;;;;17.90;97.40;100231.75;3573165;40;20056;-42
2021/07/29 02:02:04;;;;;;;5.28;4.75;;;;;;;18.05;97.20;100228.97;3573421;40;20088;-42
2021/07/29 02:04:35;;;;;;;5.88;5.00;;;;;;;17.86;98.11;100237.00;3572843;40;20033;-45
2021/07/29 02:07:03;;;;;;;5.32;4.82;;;;;;;17.96;97.83;100241.19;3569763;40;20117;-42
2021/07/29 02:09:30;;;;;;;5.85;5.00;;;;;;;18.01;97.51;100237.66;3572657;40;20053;-43
2021/07/29 02:11:59;;;;;;;5.80;5.22;;;;;;;17.94;97.95;100248.13;3573157;40;20410;-42
2021/07/29 02:14:28;;;;;;;5.63;5.13;;;;;;;17.68;99.22;100244.03;3569149;40;20430;-43
2021/07/29 02:16:56;;;;;;;6.88;5.97;;;;;;;17.77;98.90;100238.81;3573373;40;20040;-42
2021/07/29 02:19:24;;;;;;;6.00;5.45;;;;;;;17.74;99.74;100245.75;3572862;40;20076;-45
2021/07/29 02:21:51;;;;;;;6.35;5.18;;;;;;;17.82;98.76;100246.53;3573043;40;20088;-43
2021/07/29 02:24:18;;;;;;;5.35;4.85;;;;;;;17.71;99.22;100240.59;3573027;40;20687;-42
2021/07/29 02:26:45;;;;;;;7.25;4.97;;;;;;;17.37;100.00;100243.47;3573399;40;20107;-42
2021/07/29 02:29:12;;;;;;;6.35;5.45;;;;;;;17.61;100.00;100247.59;3569331;40;20038;-43
2021/07/29 02:31:39;;;;;;;5.32;4.82;;;;;;;17.62;100.00;100249.31;3574770;40;20104;-42
2021/07/29 02:34:07;;;;;;;6.13;5.30;;;;;;;17.59;100.00;100245.88;3575037;40;20057;-43
2021/07/29 02:36:34;;;;;;;5.82;5.15;;;;;;;17.54;100.00;100245.94;3574430;40;20088;-43
2021/07/29 02:39:01;;;;;;;5.97;5.15;;;;;;;17.41;100.00;100255.53;3574413;40;20080;-42
2021/07/29 02:41:28;;;;;;;7.05;5.63;;;;;;;17.34;100.00;100264.25;3574091;40;20073;-42
2021/07/29 02:43:55;;;;;;;6.30;5.07;;;;;;;17.38;100.00;100255.56;3574676;40;20061;-42
2021/07/29 02:46:22;;;;;;;6.80;5.50;;;;;;;17.40;100.00;100255.56;3570461;40;20085;-42
2021/07/29 02:48:49;;;;;;;5.65;5.13;;;;;;;17.32;100.00;100265.97;3574587;40;20064;-44
2021/07/29 02:51:16;;;;;;;5.97;4.85;;;;;;;17.30;100.00;100262.53;3575543;40;20089;-42
2021/07/29 02:53:43;;;;;;;7.82;5.60;;;;;;;17.22;100.00;100261.75;3575135;40;20049;-42
2021/07/29 02:56:10;;;;;;;6.25;5.35;;;;;;;17.22;100.00;100256.56;3575076;40;20081;-42
2021/07/29 02:58:37;;;;;;;6.13;5.28;;;;;;;17.25;100.00;100257.41;3574947;40;20059;-44
2021/07/29 03:01:04;;;;;;;6.57;5.03;;;;;;;17.20;100.00;100255.75;3575194;40;20064;-43
2021/07/29 03:03:32;;;;;;;5.45;4.95;;;;;;;17.14;100.00;100256.63;3574957;40;20048;-42
2021/07/29 03:05:59;;;;;;;7.90;5.35;;;;;;;17.13;100.00;100252.31;3575327;40;20053;-42
2021/07/29 03:08:26;;;;;;;6.95;5.40;;;;;;;17.11;100.00;100250.63;3574800;40;20053;-44
2021/07/29 03:10:53;;;;;;;5.80;4.85;;;;;;;17.06;100.00;100253.25;3575175;40;20474;-44
2021/07/29 03:13:20;;;;;;;6.05;5.05;;;;;;;17.13;100.00;100251.47;3574944;40;20090;-42
2021/07/29 03:15:47;;;;;;;5.68;4.97;;;;;;;17.10;100.00;100254.06;3575192;40;20587;-42
2021/07/29 03:18:14;;;;;;;6.63;5.60;;;;;;;16.97;100.00;100250.75;3574854;40;20141;-42
2021/07/29 03:20:42;;;;;;;6.35;5.75;;;;;;;16.98;100.00;100258.47;3575020;40;20456;-43
2021/07/29 03:23:10;;;;;;;5.65;5.07;;;;;;;17.04;100.00;100265.34;3575096;40;20089;-42
2021/07/29 03:25:37;;;;;;;6.50;5.40;;;;;;;16.99;100.00;100267.09;3575025;40;20085;-44
2021/07/29 03:28:05;;;;;;;5.93;5.30;;;;;;;16.92;100.00;100268.03;3575059;40;20093;-42
2021/07/29 03:30:32;;;;;;;7.07;5.80;;;;;;;16.96;100.00;100265.41;3574815;40;20096;-43
2021/07/29 03:33:00;;;;;;;7.03;5.25;;;;;;;16.88;100.00;100266.34;3575034;40;20093;-42
2021/07/29 03:35:27;;;;;;;7.30;5.88;;;;;;;16.91;100.00;100272.31;3575003;40;20049;-42
2021/07/29 03:37:54;;;;;;;6.97;5.55;;;;;;;16.87;100.00;100281.00;3567350;40;20074;-43
2021/07/29 03:40:21;;;;;;;6.22;5.55;;;;;;;16.78;100.00;100281.91;3564527;40;20057;-42
2021/07/29 03:42:48;;;;;;;7.93;5.20;;;;;;;16.82;100.00;100274.13;3564445;40;20054;-44
2021/07/29 03:45:17;;;;;;;6.22;5.63;;;;;;;16.90;100.00;100280.09;3564721;40;20085;-42
2021/07/29 03:47:57;;;;;;;8.40;5.25;;;;;;;16.87;100.00;100283.59;3564708;40;20644;-42
2021/07/29 03:50:28;;;;;;;7.80;5.68;;;;;;;16.96;100.00;100273.16;3564244;40;20038;-42
2021/07/29 03:52:55;;;;;;;10.57;5.90;;;;;;;17.02;100.00;100269.69;3563736;40;20049;-42
2021/07/29 03:55:41;;;;;;;7.10;5.05;;;;;;;17.03;100.00;100277.41;3563375;40;20323;-43
2021/07/29 03:58:14;;;;;;;5.80;5.20;;;;;;;17.15;100.00;100275.63;3564021;40;20045;-43
2021/07/29 04:00:45;;;;;;;5.82;4.72;;;;;;;17.23;100.00;100278.97;3564317;40;20045;-45
2021/07/29 04:03:18;;;;;;;5.72;5.22;;;;;;;17.29;100.00;100281.53;3564222;40;20053;-42
2021/07/29 04:05:49;;;;;;;5.97;5.38;;;;;;;17.38;100.00;100288.34;3564861;40;20583;-45
2021/07/29 04:08:19;;;;;;;7.72;5.28;;;;;;;17.32;100.00;100286.66;3565017;40;20050;-43
2021/07/29 04:10:51;;;;;;;6.15;5.55;;;;;;;17.23;100.00;100284.16;3573460;40;20045;-43
2021/07/29 04:13:24;;;;;;;8.60;5.43;;;;;;;17.43;100.00;100295.22;3573902;40;20057;-43
2021/07/29 04:16:04;;;;;;;6.13;4.80;;;;;;;17.45;100.00;100277.94;3573405;40;20056;-45
2021/07/29 04:18:37;;;;;;;8.23;5.60;;;;;;;17.46;100.00;100287.41;3573570;40;20082;-45
2021/07/29 04:21:22;;;;;;;6.43;4.72;;;;;;;17.63;100.00;100283.81;3574113;40;20037;-42
2021/07/29 04:23:52;;;;;;;8.10;5.43;;;;;;;17.71;100.00;100282.88;3568930;40;20069;-43
2021/07/29 04:26:20;;;;;;;5.75;5.13;;;;;;;17.71;100.00;100292.38;3573983;40;20048;-43
2021/07/29 04:28:47;;;;;;;6.07;5.28;;;;;;;17.68;100.00;100294.97;3574754;40;20494;-43
2021/07/29 04:31:16;;;;;;;5.30;4.60;;;;;;;17.64;100.00;100290.72;3573954;40;20092;-43
2021/07/29 04:33:44;;;;;;;6.55;5.07;;;;;;;17.77;100.00;100294.94;3619445;23;20049;-49
2021/07/29 04:36:11;;;;;;;5.78;4.95;;;;;;;17.73;100.00;100288.03;3563685;40;20091;-51
2021/07/29 04:38:38;;;;;;;7.22;5.28;;;;;;;17.77;99.41;100290.59;3564121;40;20561;-48
2021/07/29 04:41:06;;;;;;;6.63;5.00;;;;;;;17.86;99.42;100297.41;3564172;40;20057;-52
2021/07/29 04:43:33;;;;;;;6.57;5.32;;;;;;;17.91;99.02;100300.81;3563368;40;20053;-46
2021/07/29 04:46:03;;;;;;;5.90;4.70;;;;;;;17.86;99.86;100294.81;3563978;40;20415;-54
2021/07/29 04:48:31;;;;;;;7.20;4.90;;;;;;;17.91;99.49;100292.19;3563336;40;20048;-48
2021/07/29 04:51:03;;;;;;;5.20;4.70;;;;;;;18.07;98.70;100293.72;3563809;40;20045;-47
2021/07/29 04:53:31;;;;;;;9.02;5.97;;;;;;;17.88;98.40;100295.66;3563002;40;20046;-49
2021/07/29 04:56:02;;;;;;;6.28;5.38;;;;;;;17.97;98.47;100292.97;3560610;40;20065;-48
2021/07/29 04:58:29;;;;;;;7.25;4.47;;;;;;;18.13;97.48;100300.59;3563312;40;20050;-49
2021/07/29 05:00:56;;;;;;;6.47;4.93;;;;;;;18.15;97.65;100302.28;3563970;40;20081;-46
2021/07/29 05:03:25;;;;;;;6.85;4.47;;;;;;;18.18;98.41;100297.06;3563645;40;20069;-49
2021/07/29 05:05:52;;;;;;;5.03;4.32;;;;;;;18.35;96.95;100299.47;3564192;40;20087;-48
2021/07/29 05:08:19;;;;;;;6.93;5.10;;;;;;;18.17;96.99;100295.34;3564306;40;20085;-47
2021/07/29 05:10:46;;;;;;;8.57;5.13;;;;;;;18.16;97.69;100300.53;3564178;40;20446;-46
2021/07/29 05:13:13;;;;;;;5.75;4.82;;;;;;;18.40;97.39;100308.03;3563251;40;20089;-49
2021/07/29 05:15:41;;;;;;;4.93;4.53;;;;;;;18.41;96.50;100303.72;3563665;40;20063;-49
2021/07/29 05:18:08;;;;;;;5.07;4.57;;;;;;;18.39;95.93;100297.66;3563335;40;20065;-48
2021/07/29 05:20:37;;;;;;;8.23;5.18;;;;;;;18.36;96.56;100308.94;3563555;40;20070;-49
2021/07/29 05:23:04;;;;;;;6.32;4.82;;;;;;;18.45;96.45;100303.66;3563628;40;20053;-48
2021/07/29 05:25:34;;;;;;;5.35;4.85;;;;;;;18.46;96.65;100296.72;3563136;40;20094;-48
2021/07/29 05:28:01;;;;;;;11.55;5.63;;;;;;;18.58;96.65;100300.03;3563549;40;20465;-46
2021/07/29 05:30:28;;;;;;;8.15;5.40;;;;;;;18.55;95.78;100302.63;3563266;40;20038;-47
2021/07/29 05:32:55;;;;;;;6.45;4.32;;;;;;;18.31;96.87;100309.00;3563549;40;20403;-47
2021/07/29 05:35:22;;;;;;;8.50;5.30;;;;;;;18.32;96.95;100299.50;3563250;40;20053;-46
2021/07/29 05:37:49;;;;;;;8.15;5.07;;;;;;;18.29;96.98;100295.19;3563644;40;20101;-48
2021/07/29 05:40:16;;;;;;;7.63;4.55;;;;;;;18.19;97.66;100305.69;3562886;40;20053;-50
2021/07/29 05:42:43;;;;;;;7.60;4.65;;;;;;;18.36;96.56;100305.50;3563303;40;20060;-49
2021/07/29 05:45:11;;;;;;;8.35;4.82;;;;;;;18.45;95.78;100297.59;3563169;40;20139;-48
2021/07/29 05:47:38;;;;;;;6.05;4.10;;;;;;;18.52;95.94;100297.47;3563464;40;20045;-48
2021/07/29 05:50:06;;;;;;;6.05;4.68;;;;;;;18.58;95.11;100302.63;3563615;40;20057;-49
2021/07/29 05:52:40;;;;;;;6.10;4.53;;;;;;;18.67;94.33;100309.38;3563037;40;20052;-49
2021/07/29 05:55:26;;;;;;;4.82;4.30;;;;;;;18.75;93.43;100315.38;3562908;40;20050;-45
2021/07/29 05:57:56;;;;;;;6.40;4.50;;;;;;;18.82;93.94;100304.03;3563224;40;20045;-48
2021/07/29 06:00:23;;;;;;;6.57;4.45;;;;;;;18.90;91.61;100308.25;3559673;40;20054;-44
2021/07/29 06:03:01;;;;;;;4.97;4.38;;;;;;;19.05;92.66;100311.47;3563102;40;20059;-48
2021/07/29 06:05:31;;;;;;;6.53;4.50;;;;;;;19.00;90.79;100299.47;3562344;40;20131;-52
2021/07/29 06:08:04;;;;;;;6.18;4.65;;;;;;;19.32;90.43;100299.81;3565563;40;20053;-49
2021/07/29 06:10:36;;;;;;;5.80;4.03;;;;;;;19.47;89.75;100306.47;3561439;40;20080;-49
2021/07/29 06:13:13;;;;;;;8.85;4.53;;;;;;;19.47;90.89;100309.06;3566672;40;20099;-53
2021/07/29 06:15:51;;;;;;;4.72;4.22;;;;;;;19.61;86.20;100308.88;3565673;40;20058;-51
2021/07/29 06:18:27;;;;;;;5.20;4.05;;;;;;;19.61;85.69;100305.41;3563021;40;20049;-49
2021/07/29 06:21:03;;;;;;;4.53;3.95;;;;;;;19.74;87.97;100309.53;3563963;40;20053;-48
2021/07/29 06:23:43;;;;;;;4.53;3.97;;;;;;;19.64;85.60;100302.75;3563466;40;20131;-51
2021/07/29 06:26:22;;;;;;;4.22;3.67;;;;;;;19.79;85.99;100299.91;3563505;40;20062;-50
2021/07/29 06:28:52;;;;;;;4.35;3.95;;;;;;;19.88;83.67;100299.72;3557622;40;20075;-50
2021/07/29 06:31:37;;;;;;;5.95;4.00;;;;;;;19.95;82.56;100300.44;3563140;40;20127;-50
2021/07/29 06:34:21;;;;;;;5.70;3.85;;;;;;;20.09;82.28;100301.88;3563272;40;20403;-49
2021/07/29 06:37:07;;;;;;;5.70;3.25;;;;;;;20.19;81.21;100302.56;3563154;40;20065;-51
2021/07/29 06:39:44;;;;;;;5.45;4.03;;;;;;;20.09;80.90;100288.03;3563132;40;20045;-48
2021/07/29 06:42:17;;;;;;;5.70;3.67;;;;;;;20.08;78.77;100295.00;3558948;40;20127;-51
2021/07/29 06:44:53;;;;;;;3.63;3.30;;;;;;;20.19;79.92;100286.97;3557545;40;20046;-52
2021/07/29 06:47:27;;;;;;;6.75;3.58;;;;;;;20.51;78.84;100283.72;3562491;40;20061;-50
2021/07/29 06:50:07;;;;;;;4.90;3.70;;;;;;;20.60;75.63;100283.50;3563397;40;20712;-50
2021/07/29 06:52:41;;;;;;;5.63;3.60;;;;;;;20.83;75.12;100280.41;3563086;40;20393;-48
2021/07/29 06:55:22;;;;;;;5.70;3.40;;;;;;;21.06;75.04;100290.28;3562718;40;20046;-54
2021/07/29 06:58:00;;;;;;;3.97;2.92;;;;;;;21.24;74.42;100293.31;3562796;40;20684;-50
2021/07/29 07:00:33;;;;;;;4.75;3.08;;;;;;;21.05;73.51;100301.59;3562156;40;20061;-51
2021/07/29 07:03:10;;;;;;;3.67;3.38;;;;;;;21.17;73.24;100303.06;3562729;40;20049;-50
2021/07/29 07:05:45;;;;;;;4.63;3.38;;;;;;;21.50;72.64;100304.00;3555594;40;20049;-50
2021/07/29 07:08:16;;;;;;;6.18;3.58;;;;;;;21.32;72.07;100297.50;3562646;40;20049;-50
2021/07/29 07:10:56;;;;;;;5.35;3.75;;;;;;;21.52;70.10;100293.53;3560366;40;20053;-50
2021/07/29 07:13:29;;;;;;;4.07;3.67;;;;;;;21.54;68.98;100303.03;3562354;40;20077;-49
2021/07/29 07:15:59;;;;;;;3.65;3.35;;;;;;;21.76;67.77;100312.88;3563030;40;20057;-49
2021/07/29 07:18:29;;;;;;;3.95;3.28;;;;;;;21.77;67.30;100304.16;3564236;40;20045;-49
2021/07/29 07:21:07;;;;;;;5.82;3.10;;;;;;;21.95;66.80;100295.81;3564389;40;20140;-51
2021/07/29 07:23:42;;;;;;;4.00;3.00;;;;;;;22.26;67.24;100302.84;3563686;40;20049;-49
2021/07/29 07:26:22;;;;;;;6.18;3.38;;;;;;;22.52;64.50;100305.56;3564354;40;20069;-50
2021/07/29 07:28:51;;;;;;;5.38;3.05;;;;;;;22.55;64.38;100307.19;3564421;40;20131;-48
2021/07/29 07:31:19;;;;;;;5.15;3.35;;;;;;;22.86;64.01;100304.50;3564259;40;20052;-49
2021/07/29 07:33:54;;;;;;;3.85;2.75;;;;;;;23.19;63.21;100302.59;3564045;40;20349;-49
2021/07/29 07:36:21;;;;;;;3.42;2.97;;;;;;;23.73;60.94;100300.84;3563978;40;20097;-49
2021/07/29 07:38:53;;;;;;;4.28;3.20;;;;;;;23.31;60.93;100307.44;3564143;40;20050;-51
2021/07/29 07:41:20;;;;;;;3.67;2.63;;;;;;;23.09;60.04;100303.81;3564770;40;20147;-48
2021/07/29 07:43:48;;;;;;;5.43;3.47;;;;;;;22.71;62.10;100292.78;3564130;40;20566;-49
2021/07/29 07:46:15;;;;;;;3.42;3.10;;;;;;;22.70;61.86;100292.84;3563786;40;20081;-49
2021/07/29 07:48:43;;;;;;;5.55;3.55;;;;;;;22.65;61.94;100293.00;3564239;40;20077;-48
2021/07/29 07:51:13;;;;;;;6.15;3.03;;;;;;;22.46;62.53;100289.19;3563701;40;20387;-51
2021/07/29 07:53:40;;;;;;;3.42;2.95;;;;;;;22.42;61.11;100283.25;3562409;40;20085;-48
2021/07/29 07:56:07;;;;;;;4.20;3.10;;;;;;;22.48;61.52;100290.88;3562278;40;20066;-52
2021/07/29 07:58:34;;;;;;;4.38;3.08;;;;;;;22.48;61.05;100277.84;3563638;40;20029;-50
2021/07/29 08:01:04;;;;;;;3.85;2.75;;;;;;;22.64;60.29;100280.81;3564198;40;20113;-49
2021/07/29 08:03:32;;;;;;;2.88;2.55;;;;;;;22.83;59.79;100271.53;3563591;40;20146;-49
2021/07/29 08:06:03;;;;;;;6.55;3.13;;;;;;;23.18;58.92;100276.53;3564111;40;20049;-50
2021/07/29 08:08:33;;;;;;;4.55;3.17;;;;;;;23.32;55.91;100279.56;3563538;40;20071;-51
2021/07/29 08:11:02;;;;;;;2.63;2.42;;;;;;;23.69;54.14;100268.72;3563823;40;20053;-51
2021/07/29 08:13:30;;;;;;;4.15;2.50;;;;;;;23.81;55.38;100273.53;3563594;40;20139;-48
2021/07/29 08:15:57;;;;;;;4.57;2.83;;;;;;;23.59;55.05;100268.16;3561305;40;20061;-49
2021/07/29 08:18:25;;;;;;;4.15;2.92;;;;;;;23.32;54.66;100269.09;3563087;40;20148;-52
2021/07/29 08:20:52;;;;;;;4.05;2.70;;;;;;;23.11;55.82;100268.91;3564313;40;20049;-49
2021/07/29 08:23:19;;;;;;;4.00;2.72;;;;;;;23.31;54.92;100272.63;3563778;40;20767;-50
2021/07/29 08:25:46;;;;;;;3.67;2.65;;;;;;;23.32;55.07;100256.03;3563821;40;20498;-49
2021/07/29 08:28:13;;;;;;;4.28;2.60;;;;;;;23.00;55.16;100259.72;3563145;40;20128;-49
2021/07/29 08:30:43;;;;;;;4.72;3.00;;;;;;;23.26;55.73;100261.47;3562085;40;20046;-50
2021/07/29 08:33:10;;;;;;;2.65;2.45;;;;;;;23.26;55.94;100262.34;3561876;40;20059;-49
2021/07/29 08:35:45;;;;;;;5.43;2.58;;;;;;;23.83;53.64;100261.22;3560016;40;20041;-49
2021/07/29 08:38:12;;;;;;;5.90;2.70;;;;;;;24.33;53.08;100265.50;3563119;40;20053;-53
2021/07/29 08:40:39;;;;;;;5.55;2.88;;;;;;;24.76;52.45;100264.72;3563884;40;20045;-48
2021/07/29 08:43:10;;;;;;;5.80;3.03;;;;;;;24.79;51.17;100251.50;3563637;40;20063;-49
2021/07/29 08:45:43;;;;;;;4.05;2.72;;;;;;;24.66;52.88;100268.63;3556504;40;20104;-51
2021/07/29 08:48:11;;;;;;;5.10;3.05;;;;;;;25.24;52.55;100258.44;3563429;40;20512;-49
2021/07/29 08:50:38;;;;;;;5.10;2.72;;;;;;;25.19;50.31;100260.41;3556259;40;20040;-49
2021/07/29 08:53:05;;;;;;;2.90;2.58;;;;;;;24.78;51.48;100256.81;3563509;40;20090;-48
2021/07/29 08:55:36;;;;;;;4.47;2.50;;;;;;;24.64;51.07;100265.22;3563194;40;20089;-50
2021/07/29 08:58:03;;;;;;;5.32;2.97;;;;;;;24.69;52.07;100257.19;3563660;40;20089;-51
2021/07/29 09:00:30;;;;;;;3.13;2.90;;;;;;;24.53;51.34;100263.00;3563644;40;20070;-50
2021/07/29 09:03:19;;;;;;;4.80;2.80;;;;;;;24.24;51.42;100261.47;3563890;40;20056;-52
2021/07/29 09:06:06;;;;;;;5.20;2.83;;;;;;;24.05;50.92;100260.47;3557534;40;20045;-53
2021/07/29 09:08:54;;;;;;;6.53;2.83;;;;;;;23.93;52.76;100263.50;3563483;40;20406;-48
2021/07/29 09:11:25;;;;;;;5.90;3.08;;;;;;;23.92;51.80;100267.91;3563932;40;20284;-48
2021/07/29 09:14:14;;;;;;;4.80;3.20;;;;;;;24.38;51.66;100258.38;3563855;40;20460;-52
2021/07/29 09:16:58;;;;;;;5.07;2.80;;;;;;;23.74;49.70;100272.03;3556710;40;20045;-50
2021/07/29 09:19:37;;;;;;;6.90;2.67;;;;;;;23.92;51.30;100262.66;3562910;40;20042;-48
2021/07/29 09:22:17;;;;;;;5.00;2.70;;;;;;;24.39;51.81;100258.31;3563849;40;20338;-48
2021/07/29 09:25:04;;;;;;;4.43;2.65;;;;;;;24.84;49.09;100257.41;3557176;40;20051;-52
2021/07/29 09:27:37;;;;;;;2.95;2.65;;;;;;;24.84;50.22;100246.94;3562864;40;20057;-47
2021/07/29 09:30:25;;;;;;;4.57;3.17;;;;;;;24.93;49.76;100256.19;3563438;40;20474;-50
2021/07/29 09:33:00;;;;;;;3.25;2.63;;;;;;;24.07;47.53;100264.72;3557994;40;20037;-51
2021/07/29 09:35:38;;;;;;;5.13;3.17;;;;;;;24.03;49.08;100251.81;3563139;40;20067;-48
2021/07/29 09:38:20;;;;;;;8.68;3.10;;;;;;;23.56;48.83;100249.97;3563210;40;20441;-48
2021/07/29 09:40:50;;;;;;;7.55;3.05;;;;;;;23.43;49.72;100255.66;3556972;40;20056;-48
2021/07/29 09:43:25;;;;;;;6.35;2.88;;;;;;;23.51;48.44;100251.88;3562392;40;20111;-49
2021/07/29 09:45:55;;;;;;;3.72;2.97;;;;;;;23.60;48.88;100255.94;3563283;40;20190;-48
2021/07/29 09:48:23;;;;;;;5.93;3.17;;;;;;;24.19;48.14;100254.72;3562842;40;20417;-51
2021/07/29 09:51:03;;;;;;;4.47;3.20;;;;;;;23.95;48.16;100254.72;3563159;40;20045;-47
2021/07/29 09:53:34;;;;;;;2.85;2.58;;;;;;;24.39;48.99;100262.69;3562669;40;20046;-50
2021/07/29 09:56:07;;;;;;;5.18;3.13;;;;;;;24.44;48.02;100258.13;3562727;40;20053;-49
2021/07/29 09:58:57;;;;;;;4.20;3.05;;;;;;;24.81;49.15;100248.81;3557445;40;20051;-49
2021/07/29 10:01:28;;;;;;;8.32;2.65;;;;;;;24.86;49.23;100246.88;3562403;40;20080;-48
2021/07/29 10:03:56;;;;;;;5.43;3.35;;;;;;;25.02;47.51;100261.06;3562920;40;20053;-48
2021/07/29 10:06:28;;;;;;;6.43;2.60;;;;;;;26.09;44.21;100259.09;3562371;40;20093;-49
2021/07/29 10:08:58;;;;;;;3.45;2.85;;;;;;;27.34;42.82;100261.94;3562845;40;20076;-48
2021/07/29 10:11:29;;;;;;;5.60;2.63;;;;;;;26.77;42.86;100256.00;3562201;40;20044;-49
2021/07/29 10:13:56;;;;;;;4.97;2.95;;;;;;;27.42;42.19;100257.13;3562458;40;20056;-48
2021/07/29 10:16:42;;;;;;;4.65;2.85;;;;;;;27.06;43.68;100258.03;3562274;40;20062;-51
2021/07/29 10:19:09;;;;;;;;;;;;;;;26.47;44.48;100261.75;3563246;40;20053;-47
2021/07/29 10:21:38;;;;;;;4.10;3.05;;;;;;;26.75;44.44;100258.66;3563129;40;20198;-46
2021/07/29 10:24:06;;;;;;;4.60;3.17;;;;;;;25.97;46.16;100251.78;3562836;40;20056;-48
2021/07/29 10:26:59;;;;;;;3.97;3.13;;;;;;;25.54;48.94;100253.66;3562268;40;20393;-48
2021/07/29 10:29:30;;;;;;;3.00;2.77;;;;;;;25.36;48.66;100251.81;3562432;40;20050;-50
2021/07/29 10:31:59;;;;;;;4.25;2.90;;;;;;;25.08;49.11;100262.59;3563294;40;20294;-45
2021/07/29 10:34:31;;;;;;;6.22;3.15;;;;;;;24.78;49.83;100251.59;3562394;40;20116;-46
2021/07/29 10:36:59;;;;;;;5.18;3.00;;;;;;;26.67;44.97;100263.47;3562726;40;20046;-46
2021/07/29 10:39:27;;;;;;;5.85;3.10;;;;;;;25.94;46.73;100258.97;3562439;40;20103;-47
2021/07/29 10:41:56;;;;;;;3.85;3.03;;;;;;;25.88;45.07;100250.44;3562729;40;20085;-46
2021/07/29 10:44:32;;;;;;;6.00;2.83;;;;;;;26.54;45.24;100257.09;3562768;40;20089;-48
2021/07/29 10:47:01;;;;;;;4.32;2.70;;;;;;;26.71;43.71;100249.22;3562665;40;20049;-48
2021/07/29 10:50:01;;;;;;;5.43;3.20;;;;;;;26.01;45.96;100240.22;3562249;40;20051;-52
2021/07/29 10:52:29;;;;;;;6.30;3.00;;;;;;;25.93;46.02;100249.38;3541353;40;20046;-48
2021/07/29 10:54:57;;;;;;;3.53;3.20;;;;;;;25.39;45.82;100247.31;3564151;40;20057;-46
2021/07/29 10:57:24;;;;;;;4.50;2.70;;;;;;;24.55;47.23;100248.09;3563582;40;20051;-48
2021/07/29 10:59:52;;;;;;;5.25;3.20;;;;;;;24.50;47.90;100260.53;3564784;40;20057;-50
2021/07/29 11:02:48;;;;;;;6.20;3.33;;;;;;;24.04;49.73;100256.16;3564319;40;20403;-46
2021/07/29 11:05:21;;;;;;;5.45;3.30;;;;;;;23.80;52.74;100261.38;3563754;40;20618;-52
2021/07/29 11:07:49;;;;;;;4.70;3.20;;;;;;;23.45;51.39;100254.72;3564067;40;20334;-49
2021/07/29 11:10:21;;;;;;;4.03;3.50;;;;;;;23.31;53.46;100252.56;3564038;40;20322;-47
2021/07/29 11:12:52;;;;;;;5.80;3.42;;;;;;;23.45;53.25;100256.47;3564585;40;20082;-49
2021/07/29 11:15:19;;;;;;;3.45;3.00;;;;;;;23.48;52.49;100258.97;3564166;40;20430;-45
2021/07/29 11:17:46;;;;;;;3.25;2.95;;;;;;;23.50;51.93;100251.94;3563921;40;20050;-49
2021/07/29 11:20:25;;;;;;;4.72;3.17;;;;;;;23.99;50.46;100250.22;3563722;40;20090;-50
2021/07/29 11:22:52;;;;;;;4.13;2.88;;;;;;;24.42;47.97;100262.59;3564357;40;20049;-50
2021/07/29 11:25:19;;;;;;;3.20;2.90;;;;;;;24.90;48.07;100261.56;3564095;40;20644;-46
2021/07/29 11:27:46;;;;;;;6.00;3.10;;;;;;;27.72;43.14;100264.41;3564328;40;20081;-45
2021/07/29 11:30:13;;;;;;;4.13;2.92;;;;;;;27.52;42.93;100249.63;3564711;40;20081;-50
2021/07/29 11:32:45;;;;;;;5.53;3.53;;;;;;;28.01;39.61;100258.47;3564609;40;20045;-50
2021/07/29 11:35:15;;;;;;;3.40;2.70;;;;;;;26.60;40.61;100265.50;3564654;40;20316;-50
2021/07/29 11:37:46;;;;;;;4.47;2.75;;;;;;;28.32;38.31;100269.94;3564709;40;20084;-46
2021/07/29 11:40:22;;;;;;;3.45;2.30;;;;;;;27.82;37.68;100258.56;3564253;40;22124;-46
2021/07/29 11:42:50;;;;;;;2.92;2.63;;;;;;;27.24;35.97;100258.06;3564851;40;20068;-56